Time;durP1;ratioP1;P1;durP2;ratioP2;P2;SDS_P1;SDS_P2;PMS_P1;PMS_P2;Temp;Humidity;BMP_temperature;BMP_pressure;BME280_temperature;BME280_humidity;BME280_pressure;Samples;Min_cycle;Max_cycle;Signal;HPM_P1;HPM_P2
2021/12/29 00:02:23;;;;;;;19.80;10.93;;;;;;;;;;5093393;28;20028;-73
2021/12/29 00:04:49;;;;;;;16.25;9.27;;;;;;;;;;5092865;28;20396;-72
2021/12/29 00:07:15;;;;;;;18.45;9.98;;;;;;;;;;5093318;28;20035;-73
2021/12/29 00:09:41;;;;;;;19.80;9.95;;;;;;;;;;5093220;28;20116;-73
2021/12/29 00:12:09;;;;;;;19.23;10.60;;;;;;;;;;5091523;28;20031;-73
2021/12/29 00:14:35;;;;;;;18.85;9.88;;;;;;;;;;5093016;28;20032;-73
2021/12/29 00:17:01;;;;;;;20.35;10.35;;;;;;;;;;5092718;28;20047;-74
2021/12/29 00:19:28;;;;;;;17.83;9.35;;;;;;;;;;5093219;28;20472;-73
2021/12/29 00:21:54;;;;;;;20.40;10.60;;;;;;;;;;5093083;28;20094;-73
2021/12/29 00:24:20;;;;;;;19.85;11.10;;;;;;;;;;5092600;28;20023;-73
2021/12/29 00:26:46;;;;;;;17.77;9.98;;;;;;;;;;5093019;28;20024;-73
2021/12/29 00:29:14;;;;;;;17.20;9.90;;;;;;;;;;5092915;28;20472;-73
2021/12/29 00:31:40;;;;;;;16.40;8.15;;;;;;;;;;5092693;28;20036;-73
2021/12/29 00:34:06;;;;;;;16.15;8.98;;;;;;;;;;5092662;28;20052;-74
2021/12/29 00:36:32;;;;;;;14.95;8.60;;;;;;;;;;5093189;28;20024;-73
2021/12/29 00:38:58;;;;;;;13.38;8.25;;;;;;;;;;5091139;28;20081;-73
2021/12/29 00:41:25;;;;;;;11.68;6.95;;;;;;;;;;5094565;28;20039;-74
2021/12/29 00:43:51;;;;;;;13.52;7.18;;;;;;;;;;5096909;28;20024;-73
2021/12/29 00:46:18;;;;;;;12.05;6.97;;;;;;;;;;5094763;28;20482;-74
2021/12/29 00:48:46;;;;;;;12.80;7.40;;;;;;;;;;5096981;28;20057;-73
2021/12/29 00:51:13;;;;;;;15.43;8.45;;;;;;;;;;5096351;28;20095;-73
2021/12/29 00:53:39;;;;;;;12.18;6.40;;;;;;;;;;5095955;28;20150;-73
2021/12/29 00:56:06;;;;;;;14.68;8.48;;;;;;;;;;5096220;28;20095;-73
2021/12/29 00:58:32;;;;;;;12.70;7.07;;;;;;;;;;5096513;28;20107;-73
2021/12/29 01:00:59;;;;;;;12.85;7.35;;;;;;;;;;5095755;28;20020;-74
2021/12/29 01:03:26;;;;;;;11.52;6.70;;;;;;;;;;5096130;28;20026;-74
2021/12/29 01:05:52;;;;;;;11.80;6.68;;;;;;;;;;5096072;28;20077;-74
2021/12/29 01:08:20;;;;;;;15.07;7.50;;;;;;;;;;5095676;28;20031;-73
2021/12/29 01:10:47;;;;;;;12.05;7.07;;;;;;;;;;5096376;28;20081;-73
2021/12/29 01:13:18;;;;;;;15.68;7.82;;;;;;;;;;5095467;28;20046;-73
2021/12/29 01:15:57;;;;;;;14.20;8.18;;;;;;;;;;5096246;28;20024;-73
2021/12/29 01:18:25;;;;;;;13.77;8.23;;;;;;;;;;5095864;28;20103;-73
2021/12/29 01:20:51;;;;;;;14.48;6.65;;;;;;;;;;5095509;28;20022;-73
2021/12/29 01:23:17;;;;;;;16.30;8.73;;;;;;;;;;5094433;28;20495;-73
2021/12/29 01:25:43;;;;;;;16.42;9.10;;;;;;;;;;5095950;28;20085;-73
2021/12/29 01:28:10;;;;;;;16.65;9.68;;;;;;;;;;5095281;28;20415;-73
2021/12/29 01:30:36;;;;;;;14.95;8.90;;;;;;;;;;5095621;28;20511;-73
2021/12/29 01:33:05;;;;;;;17.13;8.75;;;;;;;;;;5093953;28;20556;-73
2021/12/29 01:35:33;;;;;;;12.73;7.80;;;;;;;;;;5095271;28;20403;-73
2021/12/29 01:37:59;;;;;;;25.42;13.93;;;;;;;;;;5095915;28;20016;-73
2021/12/29 01:40:26;;;;;;;16.85;10.30;;;;;;;;;;5095434;28;20387;-75
2021/12/29 01:42:52;;;;;;;17.40;11.15;;;;;;;;;;5093686;28;20027;-74
2021/12/29 01:45:18;;;;;;;17.10;9.93;;;;;;;;;;5093986;28;20032;-73
2021/12/29 01:47:44;;;;;;;19.95;10.07;;;;;;;;;;5095393;28;20035;-73
2021/12/29 01:50:11;;;;;;;15.10;7.90;;;;;;;;;;5095069;28;20487;-73
2021/12/29 01:52:39;;;;;;;18.25;10.73;;;;;;;;;;5095256;28;20370;-73
2021/12/29 01:55:11;;;;;;;25.42;14.75;;;;;;;;;;5095687;28;20039;-73
2021/12/29 01:57:38;;;;;;;24.48;12.77;;;;;;;;;;5094789;28;20387;-73
2021/12/29 02:00:06;;;;;;;19.73;10.68;;;;;;;;;;5095083;28;20032;-74
2021/12/29 02:02:32;;;;;;;17.35;9.85;;;;;;;;;;5094857;28;20020;-74
2021/12/29 02:04:58;;;;;;;17.88;9.85;;;;;;;;;;5093640;28;20099;-74
2021/12/29 02:07:24;;;;;;;16.40;9.13;;;;;;;;;;5094838;28;20107;-74
2021/12/29 02:09:51;;;;;;;17.00;8.32;;;;;;;;;;5095038;28;20444;-73
2021/12/29 02:12:17;;;;;;;19.40;8.73;;;;;;;;;;5094870;28;20047;-73
2021/12/29 02:14:44;;;;;;;14.43;8.27;;;;;;;;;;5094651;28;20040;-73
2021/12/29 02:17:12;;;;;;;19.92;8.90;;;;;;;;;;5093062;28;20111;-73
2021/12/29 02:19:44;;;;;;;19.05;9.50;;;;;;;;;;5094641;28;20094;-73
2021/12/29 02:22:21;;;;;;;16.23;9.52;;;;;;;;;;5094975;28;20020;-73
2021/12/29 02:24:53;;;;;;;17.10;8.55;;;;;;;;;;5094358;28;20025;-73
2021/12/29 02:27:20;;;;;;;18.00;9.33;;;;;;;;;;5094734;28;20103;-73
2021/12/29 02:29:47;;;;;;;17.88;9.10;;;;;;;;;;5094699;28;20384;-73
2021/12/29 02:32:14;;;;;;;15.57;8.80;;;;;;;;;;5092817;28;20020;-73
2021/12/29 02:34:40;;;;;;;20.48;8.70;;;;;;;;;;5094155;28;20105;-73
2021/12/29 02:37:07;;;;;;;13.88;6.93;;;;;;;;;;5094370;28;20024;-73
2021/12/29 02:39:37;;;;;;;13.20;7.00;;;;;;;;;;5093966;28;20098;-73
2021/12/29 02:42:05;;;;;;;15.50;7.45;;;;;;;;;;5094354;28;20445;-73
2021/12/29 02:44:38;;;;;;;13.98;7.53;;;;;;;;;;5094170;28;20024;-73
2021/12/29 02:47:05;;;;;;;17.30;9.05;;;;;;;;;;5094161;28;20036;-74
2021/12/29 02:49:31;;;;;;;12.95;6.78;;;;;;;;;;5094206;28;20031;-74
2021/12/29 02:51:57;;;;;;;13.23;6.88;;;;;;;;;;5093736;28;20016;-73
2021/12/29 02:54:24;;;;;;;10.93;5.57;;;;;;;;;;5093934;28;20032;-73
2021/12/29 02:56:54;;;;;;;12.85;6.40;;;;;;;;;;5094061;28;20028;-73
2021/12/29 02:59:21;;;;;;;12.88;6.22;;;;;;;;;;5093763;28;20028;-73
2021/12/29 03:01:47;;;;;;;11.60;6.20;;;;;;;;;;5093902;28;20028;-73
2021/12/29 03:04:14;;;;;;;11.93;6.50;;;;;;;;;;5094071;28;20028;-74
2021/12/29 03:06:40;;;;;;;13.27;6.75;;;;;;;;;;5093443;28;20027;-73
2021/12/29 03:09:07;;;;;;;15.35;7.05;;;;;;;;;;5093801;28;20082;-73
2021/12/29 03:11:34;;;;;;;14.32;7.55;;;;;;;;;;5092373;28;20338;-73
2021/12/29 03:14:01;;;;;;;17.55;7.18;;;;;;;;;;5093185;28;20066;-73
2021/12/29 03:16:27;;;;;;;13.35;6.90;;;;;;;;;;5093684;28;20066;-73
2021/12/29 03:18:53;;;;;;;13.32;7.03;;;;;;;;;;5093627;28;20111;-73
2021/12/29 03:21:20;;;;;;;11.38;6.75;;;;;;;;;;5093187;28;20046;-73
2021/12/29 03:23:48;;;;;;;12.82;7.30;;;;;;;;;;5092236;28;20372;-72
2021/12/29 03:26:14;;;;;;;13.40;6.80;;;;;;;;;;5092331;28;20540;-73
2021/12/29 03:28:41;;;;;;;12.50;6.50;;;;;;;;;;5093191;28;20024;-72
2021/12/29 03:31:11;;;;;;;10.95;5.97;;;;;;;;;;5093480;28;20052;-73
2021/12/29 03:33:38;;;;;;;11.20;6.47;;;;;;;;;;5093320;28;20040;-72
2021/12/29 03:36:04;;;;;;;9.73;5.32;;;;;;;;;;5092989;28;20385;-72
2021/12/29 03:38:34;;;;;;;12.73;6.93;;;;;;;;;;5093637;28;20016;-72
2021/12/29 03:41:01;;;;;;;12.75;6.82;;;;;;;;;;5092995;28;20031;-73
2021/12/29 03:43:28;;;;;;;14.57;7.07;;;;;;;;;;5092463;28;20373;-73
2021/12/29 03:45:55;;;;;;;14.68;8.23;;;;;;;;;;5093970;28;20024;-73
2021/12/29 03:48:22;;;;;;;16.40;8.68;;;;;;;;;;5092987;28;20357;-73
2021/12/29 03:50:49;;;;;;;12.60;7.38;;;;;;;;;;5093344;28;20059;-73
2021/12/29 03:53:15;;;;;;;14.90;8.05;;;;;;;;;;5093254;28;20095;-73
2021/12/29 03:55:43;;;;;;;13.25;7.28;;;;;;;;;;5091567;28;20438;-72
2021/12/29 03:58:09;;;;;;;13.95;7.90;;;;;;;;;;5093592;28;20103;-72
2021/12/29 04:00:35;;;;;;;15.23;8.23;;;;;;;;;;5093275;28;20034;-73
2021/12/29 04:03:01;;;;;;;15.68;7.97;;;;;;;;;;5092815;28;20020;-73
2021/12/29 04:05:28;;;;;;;12.75;8.05;;;;;;;;;;5093391;28;20050;-73
2021/12/29 04:07:56;;;;;;;12.43;7.38;;;;;;;;;;5093170;28;20030;-73
2021/12/29 04:10:22;;;;;;;14.10;7.65;;;;;;;;;;5092877;28;20032;-73
2021/12/29 04:12:49;;;;;;;15.35;8.80;;;;;;;;;;5093153;28;20091;-72
2021/12/29 04:15:16;;;;;;;13.80;7.88;;;;;;;;;;5093142;28;20032;-72
2021/12/29 04:17:42;;;;;;;25.58;14.35;;;;;;;;;;5096549;28;20372;-72
2021/12/29 04:22:56;;;;;;;28.13;14.93;;;;;;;;;;5097025;28;20034;-72
2021/12/29 04:25:25;;;;;;;28.30;14.35;;;;;;;;;;5095235;28;20020;-72
2021/12/29 04:27:55;;;;;;;27.55;15.15;;;;;;;;;;5095593;28;20461;-73
2021/12/29 04:30:23;;;;;;;26.42;14.70;;;;;;;;;;5096472;28;20039;-73
2021/12/29 04:32:52;;;;;;;24.02;14.00;;;;;;;;;;5095308;28;20401;-72
2021/12/29 04:35:18;;;;;;;17.13;10.35;;;;;;;;;;5096659;28;20032;-73
2021/12/29 04:37:44;;;;;;;18.42;9.73;;;;;;;;;;5096679;28;20028;-72
2021/12/29 04:40:11;;;;;;;16.35;9.73;;;;;;;;;;5095425;28;20425;-73
2021/12/29 04:42:37;;;;;;;17.50;9.40;;;;;;;;;;5096612;28;20024;-72
2021/12/29 04:45:04;;;;;;;18.27;9.90;;;;;;;;;;5096123;28;20472;-73
2021/12/29 04:47:31;;;;;;;24.23;13.38;;;;;;;;;;5096456;28;20032;-73
2021/12/29 04:50:00;;;;;;;20.52;11.50;;;;;;;;;;5096444;28;20067;-73
2021/12/29 04:52:27;;;;;;;23.90;14.57;;;;;;;;;;5094704;28;20024;-73
2021/12/29 04:54:53;;;;;;;18.75;10.25;;;;;;;;;;5096283;28;20051;-72
2021/12/29 04:57:20;;;;;;;19.77;9.90;;;;;;;;;;5096288;28;20126;-72
2021/12/29 04:59:46;;;;;;;18.58;9.20;;;;;;;;;;5095872;28;20028;-73
2021/12/29 05:02:12;;;;;;;18.60;10.18;;;;;;;;;;5094953;28;20020;-73
2021/12/29 05:04:57;;;;;;;17.95;9.00;;;;;;;;;;5096491;28;20027;-73
2021/12/29 05:10:08;;;;;;;25.98;12.55;;;;;;;;;;5096064;28;20077;-74
2021/12/29 05:12:34;;;;;;;21.85;12.02;;;;;;;;;;5095687;28;20024;-74
2021/12/29 05:15:01;;;;;;;24.02;11.82;;;;;;;;;;5095874;28;20102;-73
2021/12/29 05:17:27;;;;;;;26.50;12.38;;;;;;;;;;5096147;28;20100;-73
2021/12/29 05:19:53;;;;;;;20.58;11.30;;;;;;;;;;5095512;28;20103;-74
2021/12/29 05:22:19;;;;;;;25.15;12.02;;;;;;;;;;5095776;28;20461;-71
2021/12/29 05:24:45;;;;;;;28.65;11.43;;;;;;;;;;5095724;28;20073;-73
2021/12/29 05:27:11;;;;;;;28.67;13.75;;;;;;;;;;5095065;28;20032;-72
2021/12/29 05:29:38;;;;;;;31.45;16.42;;;;;;;;;;5095628;28;20027;-71
2021/12/29 05:32:06;;;;;;;45.28;22.95;;;;;;;;;;5095835;28;20031;-73
2021/12/29 05:34:33;;;;;;;38.55;18.10;;;;;;;;;;5093655;28;20055;-72
2021/12/29 05:36:59;;;;;;;30.45;14.90;;;;;;;;;;5095613;28;20142;-73
2021/12/29 05:39:25;;;;;;;28.23;13.57;;;;;;;;;;5095608;28;20486;-72
2021/12/29 05:41:51;;;;;;;28.42;13.85;;;;;;;;;;5095093;28;20024;-72
2021/12/29 05:44:18;;;;;;;45.13;22.80;;;;;;;;;;5095399;28;20052;-73
2021/12/29 05:46:44;;;;;;;35.03;18.80;;;;;;;;;;5093987;28;20024;-73
2021/12/29 05:49:10;;;;;;;29.33;18.27;;;;;;;;;;5093627;28;20034;-73
2021/12/29 05:51:37;;;;;;;24.05;12.18;;;;;;;;;;5093951;28;20020;-72
2021/12/29 05:54:03;;;;;;;23.67;13.05;;;;;;;;;;5095096;28;20107;-72
2021/12/29 05:56:30;;;;;;;21.20;11.15;;;;;;;;;;5094755;28;20117;-71
2021/12/29 05:58:59;;;;;;;21.10;10.90;;;;;;;;;;5094956;28;20074;-71
2021/12/29 06:01:26;;;;;;;26.13;14.63;;;;;;;;;;5095005;28;20507;-71
2021/12/29 06:03:52;;;;;;;20.50;11.88;;;;;;;;;;5094568;28;20032;-71
2021/12/29 06:06:18;;;;;;;24.90;14.63;;;;;;;;;;5095157;28;20467;-72
2021/12/29 06:08:44;;;;;;;24.95;13.27;;;;;;;;;;5094269;28;20095;-71
2021/12/29 06:11:11;;;;;;;29.10;15.10;;;;;;;;;;5094756;28;20016;-72
2021/12/29 06:13:37;;;;;;;28.60;14.15;;;;;;;;;;5092898;28;20036;-69
2021/12/29 06:16:03;;;;;;;32.47;15.73;;;;;;;;;;5093266;28;20039;-71
2021/12/29 06:18:29;;;;;;;28.42;14.75;;;;;;;;;;5092848;28;20020;-71
2021/12/29 06:20:56;;;;;;;26.42;14.32;;;;;;;;;;5093548;28;20537;-73
2021/12/29 06:23:22;;;;;;;29.15;16.52;;;;;;;;;;5093924;28;20111;-73
2021/12/29 06:25:48;;;;;;;35.63;15.98;;;;;;;;;;5091120;28;20028;-74
2021/12/29 06:28:15;;;;;;;41.45;18.92;;;;;;;;;;5093321;28;20020;-75
2021/12/29 06:30:41;;;;;;;38.58;18.35;;;;;;;;;;5092554;28;20027;-72
2021/12/29 06:33:07;;;;;;;32.45;16.52;;;;;;;;;;5089010;28;20055;-72
2021/12/29 06:35:34;;;;;;;42.17;23.35;;;;;;;;;;5091470;28;20036;-69
2021/12/29 06:38:00;;;;;;;36.45;21.40;;;;;;;;;;5091038;28;20107;-71
2021/12/29 06:40:26;;;;;;;31.48;17.02;;;;;;;;;;5091482;28;20028;-73
2021/12/29 06:42:52;;;;;;;30.45;16.40;;;;;;;;;;5093950;28;20388;-72
2021/12/29 06:45:19;;;;;;;29.35;15.90;;;;;;;;;;5092208;28;20059;-74
2021/12/29 06:47:45;;;;;;;24.52;13.55;;;;;;;;;;5090438;28;20042;-74
2021/12/29 06:50:11;;;;;;;28.38;15.52;;;;;;;;;;5090188;28;20017;-73
2021/12/29 06:52:38;;;;;;;31.65;15.13;;;;;;;;;;5091678;28;20028;-72
2021/12/29 06:55:04;;;;;;;26.50;12.48;;;;;;;;;;5093789;28;20534;-73
2021/12/29 06:57:30;;;;;;;29.00;13.10;;;;;;;;;;5091513;28;20032;-72
2021/12/29 06:59:57;;;;;;;32.88;16.08;;;;;;;;;;5088960;28;20024;-72
2021/12/29 07:02:23;;;;;;;32.17;15.35;;;;;;;;;;5088623;28;20054;-74
2021/12/29 07:04:49;;;;;;;30.40;15.80;;;;;;;;;;5091825;28;20027;-75
2021/12/29 07:07:15;;;;;;;44.85;22.08;;;;;;;;;;5088472;28;20081;-74
2021/12/29 07:09:42;;;;;;;55.58;30.63;;;;;;;;;;5072426;28;20091;-73
2021/12/29 07:12:08;;;;;;;39.08;22.08;;;;;;;;;;5070163;28;20028;-73
2021/12/29 07:14:37;;;;;;;34.88;17.70;;;;;;;;;;5069272;28;20493;-74
2021/12/29 07:17:04;;;;;;;31.65;16.98;;;;;;;;;;5081807;28;20028;-74
2021/12/29 07:19:31;;;;;;;34.60;17.58;;;;;;;;;;5087526;28;20374;-73
2021/12/29 07:22:00;;;;;;;34.67;20.02;;;;;;;;;;5097661;28;20517;-73
2021/12/29 07:24:26;;;;;;;49.40;27.45;;;;;;;;;;5090826;28;20545;-73
2021/12/29 07:26:52;;;;;;;46.17;26.55;;;;;;;;;;5092066;28;20030;-72
2021/12/29 07:29:18;;;;;;;60.80;35.70;;;;;;;;;;5093084;28;20035;-73
2021/12/29 07:31:48;;;;;;;51.05;28.70;;;;;;;;;;5091780;28;20016;-74
2021/12/29 07:34:15;;;;;;;52.03;32.10;;;;;;;;;;5091987;28;20075;-73
2021/12/29 07:36:41;;;;;;;36.75;19.73;;;;;;;;;;5092387;28;20484;-72
2021/12/29 07:39:11;;;;;;;29.55;16.70;;;;;;;;;;5090962;28;20430;-71
2021/12/29 07:41:39;;;;;;;37.67;18.50;;;;;;;;;;5090663;28;20434;-72
2021/12/29 07:44:06;;;;;;;38.08;20.13;;;;;;;;;;5090865;28;20103;-78
2021/12/29 07:46:34;;;;;;;36.90;21.55;;;;;;;;;;5090060;28;20024;-72
2021/12/29 07:49:01;;;;;;;31.40;17.75;;;;;;;;;;5071429;28;20028;-72
2021/12/29 07:51:27;;;;;;;36.50;18.60;;;;;;;;;;5089620;28;20440;-71
2021/12/29 07:53:54;;;;;;;29.85;16.90;;;;;;;;;;5096218;28;20089;-71
2021/12/29 07:56:20;;;;;;;25.67;14.55;;;;;;;;;;5096386;28;20020;-71
2021/12/29 07:58:47;;;;;;;28.35;16.90;;;;;;;;;;5096528;28;20028;-73
2021/12/29 08:01:13;;;;;;;24.23;12.52;;;;;;;;;;5096548;28;20020;-72
2021/12/29 08:03:40;;;;;;;24.98;13.25;;;;;;;;;;5096977;28;20456;-71
2021/12/29 08:06:06;;;;;;;22.80;13.18;;;;;;;;;;5096302;28;20024;-71
2021/12/29 08:08:32;;;;;;;25.35;15.52;;;;;;;;;;5084013;28;20477;-70
2021/12/29 08:10:59;;;;;;;21.33;12.75;;;;;;;;;;5087557;28;20032;-71
2021/12/29 08:13:25;;;;;;;22.42;12.68;;;;;;;;;;5095855;28;20024;-71
2021/12/29 08:15:51;;;;;;;21.92;11.35;;;;;;;;;;5095756;28;20028;-72
2021/12/29 08:18:18;;;;;;;24.90;12.57;;;;;;;;;;5096387;28;20025;-72
2021/12/29 08:20:44;;;;;;;26.15;13.93;;;;;;;;;;5096703;28;20028;-70
2021/12/29 08:23:11;;;;;;;31.95;18.13;;;;;;;;;;5081983;28;20025;-70
2021/12/29 08:25:38;;;;;;;41.28;23.58;;;;;;;;;;5090502;28;20063;-69
2021/12/29 08:28:05;;;;;;;47.22;25.33;;;;;;;;;;5088385;28;20036;-72
2021/12/29 08:30:33;;;;;;;42.90;23.25;;;;;;;;;;5095142;28;20047;-70
2021/12/29 08:32:59;;;;;;;61.67;29.88;;;;;;;;;;5091614;28;20044;-71
2021/12/29 08:35:27;;;;;;;67.78;34.83;;;;;;;;;;5084882;28;20396;-73
2021/12/29 08:37:54;;;;;;;49.30;26.67;;;;;;;;;;5074943;28;20028;-72
2021/12/29 08:40:20;;;;;;;57.10;28.90;;;;;;;;;;5074525;28;20521;-69
2021/12/29 08:42:49;;;;;;;47.38;27.02;;;;;;;;;;5088165;28;20043;-70
2021/12/29 08:45:17;;;;;;;49.90;28.80;;;;;;;;;;5094884;28;20020;-71
2021/12/29 08:47:45;;;;;;;40.60;24.60;;;;;;;;;;5095149;28;20020;-70
2021/12/29 08:50:12;;;;;;;38.38;20.15;;;;;;;;;;5089364;28;20024;-70
2021/12/29 08:52:40;;;;;;;37.65;21.63;;;;;;;;;;5094652;28;20038;-70
2021/12/29 08:55:07;;;;;;;37.80;22.83;;;;;;;;;;5095180;28;20024;-71
2021/12/29 08:57:33;;;;;;;49.25;29.42;;;;;;;;;;5094230;28;20012;-69
2021/12/29 08:59:59;;;;;;;44.05;28.45;;;;;;;;;;5095183;28;20028;-69
2021/12/29 09:02:26;;;;;;;46.20;27.67;;;;;;;;;;5094547;28;20027;-71
2021/12/29 09:04:53;;;;;;;40.03;26.02;;;;;;;;;;5094869;28;20032;-71
2021/12/29 09:07:19;;;;;;;38.15;25.80;;;;;;;;;;5095469;28;20024;-69
2021/12/29 09:09:45;;;;;;;49.50;28.42;;;;;;;;;;5095054;28;20027;-71
2021/12/29 09:12:11;;;;;;;38.83;20.65;;;;;;;;;;5094413;28;20388;-69
2021/12/29 09:14:38;;;;;;;26.77;15.90;;;;;;;;;;5094980;28;20426;-70
2021/12/29 09:17:04;;;;;;;36.13;20.20;;;;;;;;;;5095445;28;20490;-71
2021/12/29 09:19:33;;;;;;;38.75;21.67;;;;;;;;;;5094393;28;20056;-71
2021/12/29 09:22:00;;;;;;;38.72;20.73;;;;;;;;;;5094453;28;20016;-75
2021/12/29 09:24:26;;;;;;;49.50;31.00;;;;;;;;;;5093634;28;20024;-73
2021/12/29 09:26:53;;;;;;;37.22;23.92;;;;;;;;;;5092229;28;20108;-71
2021/12/29 09:29:20;;;;;;;30.48;19.02;;;;;;;;;;5077851;28;20021;-71
2021/12/29 09:31:46;;;;;;;41.47;22.63;;;;;;;;;;5074066;28;20699;-73
2021/12/29 09:34:12;;;;;;;31.45;18.25;;;;;;;;;;5072239;28;20052;-72
2021/12/29 09:36:38;;;;;;;35.65;20.08;;;;;;;;;;5086322;28;20671;-72
2021/12/29 09:39:04;;;;;;;37.00;22.67;;;;;;;;;;5094680;28;20031;-71
2021/12/29 09:41:32;;;;;;;37.63;21.80;;;;;;;;;;5087004;28;20411;-73
2021/12/29 09:43:58;;;;;;;33.55;19.20;;;;;;;;;;5093652;28;20023;-73
2021/12/29 09:46:25;;;;;;;28.38;17.05;;;;;;;;;;5092121;28;20036;-72
2021/12/29 09:48:51;;;;;;;30.15;18.05;;;;;;;;;;5092035;28;20028;-71
2021/12/29 09:51:18;;;;;;;28.65;17.75;;;;;;;;;;5093182;28;20020;-71
2021/12/29 09:53:44;;;;;;;33.60;19.30;;;;;;;;;;5094063;28;20027;-70
2021/12/29 09:56:11;;;;;;;31.85;20.98;;;;;;;;;;5076782;28;20436;-72
2021/12/29 09:58:38;;;;;;;34.58;21.23;;;;;;;;;;5073399;28;20024;-71
2021/12/29 10:01:05;;;;;;;34.17;21.77;;;;;;;;;;5071428;28;20036;-74
2021/12/29 10:03:32;;;;;;;30.02;17.83;;;;;;;;;;5091392;28;20111;-71
2021/12/29 10:05:59;;;;;;;30.83;19.48;;;;;;;;;;5093399;28;20028;-75
2021/12/29 10:08:29;;;;;;;27.73;18.42;;;;;;;;;;5099932;28;20023;-73
2021/12/29 10:10:57;;;;;;;33.72;19.85;;;;;;;;;;5111247;28;20095;-73
2021/12/29 10:13:24;;;;;;;27.80;17.27;;;;;;;;;;5089814;28;20119;-72
2021/12/29 10:15:55;;;;;;;24.30;13.88;;;;;;;;;;5091207;28;20476;-77
2021/12/29 10:18:23;;;;;;;24.10;15.63;;;;;;;;;;5092682;28;20035;-78
2021/12/29 10:20:57;;;;;;;26.70;17.50;;;;;;;;;;5090561;28;20030;-79
2021/12/29 10:23:32;;;;;;;27.73;14.52;;;;;;;;;;5082764;28;20023;-81
2021/12/29 10:26:09;;;;;;;21.88;13.32;;;;;;;;;;5089643;28;20024;-71
2021/12/29 10:28:37;;;;;;;21.10;11.15;;;;;;;;;;5086700;28;20028;-70
2021/12/29 10:31:08;;;;;;;20.90;13.63;;;;;;;;;;5082907;28;20028;-73
2021/12/29 10:33:55;;;;;;;21.55;13.43;;;;;;;;;;5087418;28;20531;-74
2021/12/29 10:36:23;;;;;;;25.55;15.18;;;;;;;;;;5090705;28;20127;-72
2021/12/29 10:38:52;;;;;;;31.05;18.63;;;;;;;;;;5086389;28;20016;-72
2021/12/29 10:41:19;;;;;;;23.08;14.00;;;;;;;;;;5089483;28;20015;-70
2021/12/29 10:43:52;;;;;;;23.23;12.73;;;;;;;;;;5086875;28;20035;-74
2021/12/29 10:46:19;;;;;;;36.88;21.67;;;;;;;;;;5088282;28;20021;-74
2021/12/29 10:48:47;;;;;;;33.05;20.25;;;;;;;;;;5082176;28;20434;-72
2021/12/29 10:51:13;;;;;;;27.50;15.77;;;;;;;;;;5088182;28;20028;-72
2021/12/29 10:53:40;;;;;;;22.23;14.23;;;;;;;;;;5092544;28;20032;-72
2021/12/29 10:56:07;;;;;;;28.58;17.17;;;;;;;;;;5093240;28;20028;-72
2021/12/29 10:58:35;;;;;;;20.85;12.60;;;;;;;;;;5092818;28;20100;-73
2021/12/29 11:01:04;;;;;;;19.42;10.88;;;;;;;;;;5093519;28;20024;-72
2021/12/29 11:03:31;;;;;;;20.30;11.20;;;;;;;;;;5093450;28;20095;-73
2021/12/29 11:05:58;;;;;;;19.23;10.52;;;;;;;;;;5093341;28;20043;-73
2021/12/29 11:08:27;;;;;;;15.63;9.02;;;;;;;;;;5093336;28;20020;-69
2021/12/29 11:10:55;;;;;;;15.70;9.32;;;;;;;;;;5093321;28;20024;-69
2021/12/29 11:13:26;;;;;;;20.15;12.90;;;;;;;;;;5091870;28;20517;-70
2021/12/29 11:15:53;;;;;;;16.33;9.50;;;;;;;;;;5091046;28;20383;-71
2021/12/29 11:18:19;;;;;;;19.45;13.98;;;;;;;;;;5092417;28;20022;-72
2021/12/29 11:20:45;;;;;;;18.70;11.35;;;;;;;;;;5091852;28;20024;-69
2021/12/29 11:23:16;;;;;;;22.95;12.70;;;;;;;;;;5090922;28;20024;-72
2021/12/29 11:25:43;;;;;;;15.40;9.57;;;;;;;;;;5088599;28;20531;-70
2021/12/29 11:28:20;;;;;;;15.10;9.85;;;;;;;;;;5089568;28;20061;-71
2021/12/29 11:30:46;;;;;;;16.38;9.48;;;;;;;;;;5090776;28;20020;-71
2021/12/29 11:33:13;;;;;;;14.57;8.88;;;;;;;;;;5088239;28;20078;-72
2021/12/29 11:35:42;;;;;;;15.30;10.07;;;;;;;;;;5089776;28;20055;-72
2021/12/29 11:38:09;;;;;;;17.90;9.88;;;;;;;;;;5090124;28;20039;-72
2021/12/29 11:40:37;;;;;;;14.90;8.40;;;;;;;;;;5089944;28;20395;-72
2021/12/29 11:43:03;;;;;;;15.40;10.18;;;;;;;;;;5090301;28;20073;-70
2021/12/29 11:45:30;;;;;;;13.88;7.95;;;;;;;;;;5091004;28;20016;-70
2021/12/29 11:47:56;;;;;;;14.35;8.55;;;;;;;;;;5091612;28;20028;-66
2021/12/29 11:50:25;;;;;;;14.05;9.45;;;;;;;;;;5092813;28;20025;-68
2021/12/29 11:52:51;;;;;;;18.33;10.45;;;;;;;;;;5092878;28;20021;-68
2021/12/29 11:55:22;;;;;;;17.40;9.15;;;;;;;;;;5092356;28;20034;-70
2021/12/29 11:57:49;;;;;;;17.08;7.60;;;;;;;;;;5093133;28;20016;-70
2021/12/29 12:00:17;;;;;;;15.18;8.07;;;;;;;;;;5092665;28;20498;-70
2021/12/29 12:02:44;;;;;;;17.10;10.45;;;;;;;;;;5093140;28;20032;-70
2021/12/29 12:05:22;;;;;;;19.70;9.73;;;;;;;;;;5093104;28;20028;-70
2021/12/29 12:07:49;;;;;;;17.25;10.35;;;;;;;;;;5092585;28;20024;-70
2021/12/29 12:10:35;;;;;;;19.27;12.18;;;;;;;;;;5092951;28;20038;-70
2021/12/29 12:13:04;;;;;;;27.15;15.13;;;;;;;;;;5093024;28;20540;-70
2021/12/29 12:15:36;;;;;;;30.52;17.42;;;;;;;;;;5092650;28;20028;-70
2021/12/29 12:18:09;;;;;;;28.85;17.27;;;;;;;;;;5092891;28;20020;-70
2021/12/29 12:20:39;;;;;;;27.10;17.20;;;;;;;;;;5093087;28;20020;-70
2021/12/29 12:23:06;;;;;;;26.05;16.08;;;;;;;;;;5092242;28;20028;-70
2021/12/29 12:25:33;;;;;;;23.67;14.15;;;;;;;;;;5092945;28;20027;-73
2021/12/29 12:28:03;;;;;;;21.52;12.88;;;;;;;;;;5092703;28;20020;-72
2021/12/29 12:30:43;;;;;;;21.52;12.80;;;;;;;;;;5092277;28;20021;-73
2021/12/29 12:33:17;;;;;;;30.83;14.07;;;;;;;;;;5092650;28;20527;-72
2021/12/29 12:35:45;;;;;;;17.45;9.75;;;;;;;;;;5092446;28;20116;-72
2021/12/29 12:38:17;;;;;;;18.90;10.85;;;;;;;;;;5095590;28;20385;-72
2021/12/29 12:40:44;;;;;;;20.33;11.40;;;;;;;;;;5096633;28;20039;-75
2021/12/29 12:45:52;;;;;;;14.90;9.02;;;;;;;;;;5111438;27;20392;-73
2021/12/29 12:48:22;;;;;;;14.30;8.02;;;;;;;;;;5110715;28;20491;-73
2021/12/29 12:51:21;;;;;;;13.18;7.63;;;;;;;;;;5110922;27;20505;-73
2021/12/29 12:54:20;;;;;;;22.15;11.48;;;;;;;;;;5131721;27;20115;-73
2021/12/29 12:57:34;;;;;;;20.77;13.25;;;;;;;;;;5111005;27;20803;-71
2021/12/29 13:04:16;;;;;;;19.52;13.00;;;;;;;;;;5110557;27;20113;-74
2021/12/29 13:06:43;;;;;;;20.75;11.68;;;;;;;;;;5090574;28;20032;-74
2021/12/29 13:10:30;;;;;;;13.73;7.07;;;;;;;;;;5111097;27;20729;-73
2021/12/29 13:13:00;;;;;;;24.45;15.63;;;;;;;;;;5110038;28;20024;-72
2021/12/29 13:15:29;;;;;;;20.75;12.13;;;;;;;;;;5111120;28;20058;-72
2021/12/29 13:19:36;;;;;;;22.10;14.00;;;;;;;;;;5131265;27;20112;-73
2021/12/29 13:22:02;;;;;;;24.60;13.73;;;;;;;;;;5111127;28;20039;-72
2021/12/29 13:24:28;;;;;;;33.28;19.25;;;;;;;;;;5110839;28;20047;-71
2021/12/29 13:28:37;;;;;;;24.75;15.10;;;;;;;;;;5110949;27;20377;-72
2021/12/29 13:31:08;;;;;;;29.52;17.20;;;;;;;;;;5111157;28;20019;-72
2021/12/29 13:33:36;;;;;;;31.33;18.88;;;;;;;;;;5110732;28;20487;-70
2021/12/29 13:37:17;;;;;;;41.40;25.02;;;;;;;;;;5111062;27;20404;-71
2021/12/29 13:39:51;;;;;;;38.45;22.63;;;;;;;;;;5110686;28;20392;-71
2021/12/29 13:42:17;;;;;;;33.80;21.48;;;;;;;;;;5110982;28;20048;-70
2021/12/29 13:44:44;;;;;;;28.33;17.33;;;;;;;;;;5110912;28;20035;-71
2021/12/29 13:47:10;;;;;;;24.88;16.23;;;;;;;;;;5110205;28;20023;-72
2021/12/29 13:49:36;;;;;;;27.13;17.90;;;;;;;;;;5110331;28;20024;-73
2021/12/29 13:52:03;;;;;;;29.98;17.95;;;;;;;;;;5109846;28;20429;-73
2021/12/29 13:54:30;;;;;;;27.50;16.08;;;;;;;;;;5110527;28;20027;-72
2021/12/29 13:56:57;;;;;;;24.33;16.45;;;;;;;;;;5110758;28;20486;-71
2021/12/29 13:59:24;;;;;;;27.05;16.10;;;;;;;;;;5110656;28;20099;-72
2021/12/29 14:01:52;;;;;;;31.15;17.90;;;;;;;;;;5110448;28;20028;-73
2021/12/29 14:04:19;;;;;;;34.25;19.70;;;;;;;;;;5111017;28;20020;-74
2021/12/29 14:06:46;;;;;;;39.35;23.67;;;;;;;;;;5110938;28;20357;-74
2021/12/29 14:09:13;;;;;;;40.80;26.13;;;;;;;;;;5110371;28;20012;-72
2021/12/29 14:11:40;;;;;;;35.40;21.45;;;;;;;;;;5110800;28;20103;-73
2021/12/29 14:14:07;;;;;;;31.50;19.80;;;;;;;;;;5110119;28;20479;-73
2021/12/29 14:16:35;;;;;;;33.75;20.98;;;;;;;;;;5110572;28;20047;-73
2021/12/29 14:19:05;;;;;;;33.55;19.88;;;;;;;;;;5110407;28;20024;-73
2021/12/29 14:21:34;;;;;;;38.47;21.00;;;;;;;;;;5110202;28;20380;-73
2021/12/29 14:24:02;;;;;;;42.35;24.13;;;;;;;;;;5110251;28;20023;-73
2021/12/29 14:26:31;;;;;;;45.33;28.27;;;;;;;;;;5110244;28;20027;-73
2021/12/29 14:28:58;;;;;;;41.88;25.88;;;;;;;;;;5109812;28;20024;-73
2021/12/29 14:31:26;;;;;;;43.85;24.75;;;;;;;;;;5110271;28;20024;-72
2021/12/29 14:33:53;;;;;;;39.88;23.90;;;;;;;;;;5110146;28;20038;-74
2021/12/29 14:36:44;;;;;;;36.22;22.92;;;;;;;;;;5109643;28;20083;-74
2021/12/29 14:39:12;;;;;;;36.10;20.63;;;;;;;;;;5110535;28;20015;-73
2021/12/29 14:41:40;;;;;;;32.78;20.42;;;;;;;;;;5109968;28;20104;-74
2021/12/29 14:44:08;;;;;;;45.83;27.65;;;;;;;;;;5109442;28;20024;-73